Time;durP1;ratioP1;P1;durP2;ratioP2;P2;SDS_P1;SDS_P2;PMS_P1;PMS_P2;Temp;Humidity;BMP_temperature;BMP_pressure;BME280_temperature;BME280_humidity;BME280_pressure;Samples;Min_cycle;Max_cycle;Signal;HPM_P1;HPM_P2
2023/04/13 00:00:10;;;;;;;3.00;0.65;;;8.70;99.90;;;;;;4975514;28;20065;-81
2023/04/13 00:02:37;;;;;;;3.55;0.70;;;8.70;99.90;;;;;;4965179;28;20043;-80
2023/04/13 00:05:08;;;;;;;1.73;0.82;;;8.80;99.90;;;;;;4966513;28;20039;-81
2023/04/13 00:07:39;;;;;;;1.83;0.50;;;8.70;99.90;;;;;;4967196;28;20051;-81
2023/04/13 00:10:08;;;;;;;2.50;0.77;;;8.70;99.90;;;;;;4963840;28;20519;-81
2023/04/13 00:12:47;;;;;;;5.78;1.00;;;8.80;99.90;;;;;;4968600;28;20130;-81
2023/04/13 00:15:18;;;;;;;3.20;0.87;;;8.80;99.90;;;;;;4974734;28;21095;-81
2023/04/13 00:17:46;;;;;;;2.30;0.70;;;8.80;99.90;;;;;;4971829;28;20071;-81
2023/04/13 00:20:13;;;;;;;3.35;0.80;;;8.70;99.90;;;;;;4971000;28;20043;-81
2023/04/13 00:22:42;;;;;;;1.83;0.50;;;8.70;99.90;;;;;;4970263;28;20448;-78
2023/04/13 00:25:10;;;;;;;2.78;0.70;;;8.60;99.90;;;;;;4967208;28;20074;-82
2023/04/13 00:27:41;;;;;;;7.70;0.70;;;8.60;99.90;;;;;;4970775;28;20039;-81
2023/04/13 00:30:13;;;;;;;4.18;0.77;;;8.60;99.90;;;;;;4971094;28;20550;-80
2023/04/13 00:32:42;;;;;;;2.78;0.70;;;8.60;99.90;;;;;;4969124;28;20094;-81
2023/04/13 00:35:10;;;;;;;3.20;0.85;;;8.60;99.90;;;;;;4964611;28;20130;-81
2023/04/13 00:37:38;;;;;;;2.70;0.80;;;8.60;99.90;;;;;;4970319;28;20043;-81
2023/04/13 00:40:09;;;;;;;1.70;1.00;;;8.60;99.90;;;;;;4963717;28;20123;-80
2023/04/13 00:42:36;;;;;;;1.85;0.85;;;8.60;99.90;;;;;;4969936;28;20043;-79
2023/04/13 00:45:03;;;;;;;1.95;0.70;;;8.50;99.90;;;;;;4985837;28;20133;-80
2023/04/13 00:47:32;;;;;;;3.33;0.80;;;8.50;99.90;;;;;;4968878;28;20125;-80
2023/04/13 00:50:00;;;;;;;4.13;0.80;;;8.50;99.90;;;;;;4966554;28;20042;-80
2023/04/13 00:52:27;;;;;;;1.75;0.90;;;8.50;99.90;;;;;;4968205;28;20286;-80
2023/04/13 00:54:56;;;;;;;4.78;0.70;;;8.50;99.90;;;;;;4978804;28;20051;-80
2023/04/13 00:57:24;;;;;;;4.30;0.85;;;8.50;99.90;;;;;;4962718;28;20077;-80
2023/04/13 00:59:51;;;;;;;2.75;0.80;;;8.50;99.90;;;;;;4983659;28;20418;-80
2023/04/13 01:02:25;;;;;;;3.08;0.80;;;8.50;99.90;;;;;;4962471;28;20039;-78
2023/04/13 01:04:56;;;;;;;2.50;1.08;;;8.50;99.90;;;;;;4965455;28;20050;-80
2023/04/13 01:07:58;;;;;;;2.95;0.75;;;8.50;99.90;;;;;;4973643;28;20039;-80
2023/04/13 01:10:43;;;;;;;3.08;0.98;;;8.50;99.90;;;;;;4985532;28;20070;-78
2023/04/13 01:13:25;;;;;;;2.10;0.57;;;8.40;99.90;;;;;;4968802;28;20070;-79
2023/04/13 01:16:02;;;;;;;1.52;0.68;;;8.50;99.90;;;;;;4970633;28;20058;-80
2023/04/13 01:18:33;;;;;;;3.85;0.90;;;8.50;99.90;;;;;;4978813;28;20054;-80
2023/04/13 01:21:03;;;;;;;6.18;0.80;;;8.40;99.90;;;;;;4963509;28;20121;-80
2023/04/13 01:24:16;;;;;;;3.33;0.70;;;8.40;99.90;;;;;;4975073;28;20102;-79
2023/04/13 01:26:56;;;;;;;3.70;1.00;;;8.30;99.90;;;;;;4975438;28;20035;-80
2023/04/13 01:29:25;;;;;;;6.85;0.90;;;8.30;99.90;;;;;;4985302;28;20047;-79
2023/04/13 01:31:53;;;;;;;3.50;0.80;;;8.30;99.90;;;;;;4999904;28;20047;-80
2023/04/13 01:34:22;;;;;;;4.05;1.15;;;8.20;99.90;;;;;;4979183;28;20054;-80
2023/04/13 01:36:49;;;;;;;3.67;1.05;;;8.20;99.90;;;;;;4971368;28;20066;-79
2023/04/13 01:39:20;;;;;;;3.70;0.90;;;8.10;99.90;;;;;;4969001;28;20047;-80
2023/04/13 01:41:46;;;;;;;;;;;8.00;99.90;;;;;;4961642;28;20479;-79
2023/04/13 01:44:13;;;;;;;3.53;1.00;;;8.00;99.90;;;;;;4979305;28;20032;-79
2023/04/13 01:46:49;;;;;;;5.00;1.00;;;7.90;99.90;;;;;;4964974;28;20118;-79
2023/04/13 01:49:19;;;;;;;4.72;0.90;;;7.90;99.90;;;;;;4958195;28;20380;-79
2023/04/13 01:51:49;;;;;;;2.72;1.35;;;7.80;99.90;;;;;;4965728;28;20078;-80
2023/04/13 01:54:26;;;;;;;8.40;1.67;;;7.80;99.90;;;;;;4963629;28;20503;-78
2023/04/13 01:56:55;;;;;;;4.28;0.73;;;7.70;99.90;;;;;;4971316;28;20054;-79
2023/04/13 01:59:22;;;;;;;4.68;0.95;;;7.70;99.90;;;;;;4967806;28;20384;-80
2023/04/13 02:01:49;;;;;;;4.60;1.10;;;7.60;99.90;;;;;;4967113;28;20455;-80
2023/04/13 02:04:16;;;;;;;3.60;0.80;;;7.60;99.90;;;;;;4964637;28;20100;-80
2023/04/13 02:06:43;;;;;;;9.07;1.02;;;7.50;99.90;;;;;;4963171;28;20039;-80
2023/04/13 02:09:10;;;;;;;2.95;1.10;;;7.50;99.90;;;;;;4967888;28;20059;-80
2023/04/13 02:11:37;;;;;;;2.10;0.90;;;7.60;99.90;;;;;;4959393;28;20122;-80
2023/04/13 02:14:04;;;;;;;4.93;1.10;;;7.50;99.90;;;;;;4963741;28;20052;-79
2023/04/13 02:16:30;;;;;;;4.97;0.90;;;7.50;99.90;;;;;;4964958;28;20509;-79
2023/04/13 02:18:57;;;;;;;5.13;1.00;;;7.50;99.90;;;;;;4960942;28;20074;-80
2023/04/13 02:21:24;;;;;;;6.22;0.95;;;7.50;99.90;;;;;;4984063;28;20035;-80
2023/04/13 02:23:51;;;;;;;7.95;1.23;;;7.40;99.90;;;;;;4969115;28;20577;-79
2023/04/13 02:26:18;;;;;;;4.63;1.05;;;7.40;99.90;;;;;;4968243;28;20462;-79
2023/04/13 02:28:46;;;;;;;2.10;0.80;;;7.40;99.90;;;;;;4968863;28;20127;-80
2023/04/13 02:31:15;;;;;;;6.78;1.20;;;7.40;99.90;;;;;;4966382;28;20414;-79
2023/04/13 02:33:43;;;;;;;;;;;7.40;99.90;;;;;;4965869;28;20039;-79
2023/04/13 02:36:10;;;;;;;4.32;1.08;;;7.40;99.90;;;;;;4962878;28;19918;-80
2023/04/13 02:38:37;;;;;;;4.53;0.90;;;7.30;99.90;;;;;;4967087;28;20039;-80
2023/04/13 02:41:05;;;;;;;3.83;1.20;;;7.30;99.90;;;;;;4961083;28;20419;-79
2023/04/13 02:43:33;;;;;;;7.35;1.02;;;7.30;99.90;;;;;;4980892;28;20047;-80
2023/04/13 02:45:59;;;;;;;2.17;0.90;;;7.30;99.90;;;;;;4969861;28;20047;-80
2023/04/13 02:48:27;;;;;;;5.88;0.90;;;7.30;99.90;;;;;;4973128;28;20511;-79
2023/04/13 02:50:53;;;;;;;9.48;1.33;;;7.40;99.90;;;;;;4963804;28;20048;-80
2023/04/13 02:53:21;;;;;;;7.47;1.52;;;7.40;99.90;;;;;;4982734;28;20142;-79
2023/04/13 02:55:49;;;;;;;7.85;1.85;;;7.40;99.90;;;;;;4966981;28;20054;-78
2023/04/13 02:58:16;;;;;;;3.85;1.00;;;7.50;99.90;;;;;;4962365;28;20055;-80
2023/04/13 03:00:43;;;;;;;4.22;1.10;;;7.50;99.90;;;;;;4966010;28;20665;-80
2023/04/13 03:03:10;;;;;;;11.77;1.27;;;7.50;99.90;;;;;;4962890;28;20046;-79
2023/04/13 03:05:37;;;;;;;5.60;1.00;;;7.60;99.90;;;;;;4959816;28;20046;-80
2023/04/13 03:08:04;;;;;;;4.43;0.90;;;7.60;99.90;;;;;;4969362;28;20043;-80
2023/04/13 03:10:31;;;;;;;4.88;1.15;;;7.60;99.90;;;;;;4968578;28;20057;-79
2023/04/13 03:12:57;;;;;;;8.73;1.33;;;7.60;99.90;;;;;;4964161;28;20130;-79
2023/04/13 03:15:24;;;;;;;5.45;1.20;;;7.60;99.90;;;;;;4967857;28;20038;-79
2023/04/13 03:17:51;;;;;;;6.25;1.65;;;7.60;99.90;;;;;;4969812;28;20134;-79
2023/04/13 03:20:20;;;;;;;5.05;1.20;;;7.60;99.90;;;;;;4967148;28;20051;-79
2023/04/13 03:22:46;;;;;;;3.55;1.10;;;7.70;99.90;;;;;;4965416;28;20073;-79
2023/04/13 03:25:13;;;;;;;5.45;1.13;;;7.70;99.90;;;;;;4968904;28;20513;-79
2023/04/13 03:27:40;;;;;;;7.45;1.15;;;7.70;99.90;;;;;;4962261;28;20099;-80
2023/04/13 03:30:07;;;;;;;7.50;1.35;;;7.70;99.90;;;;;;4968935;28;20111;-79
2023/04/13 03:32:34;;;;;;;9.15;1.30;;;7.70;99.90;;;;;;4965256;28;20192;-80
2023/04/13 03:35:01;;;;;;;7.10;1.23;;;7.70;99.90;;;;;;4970000;28;20055;-79
2023/04/13 03:37:31;;;;;;;5.57;0.98;;;7.70;99.90;;;;;;4970024;28;20121;-80
2023/04/13 03:39:58;;;;;;;4.88;1.13;;;7.80;99.90;;;;;;4970066;28;20066;-79
2023/04/13 03:42:25;;;;;;;8.30;2.00;;;7.80;99.90;;;;;;4967382;28;20503;-80
2023/04/13 03:44:51;;;;;;;6.63;1.25;;;7.80;99.90;;;;;;4980543;28;20170;-80
2023/04/13 03:47:18;;;;;;;8.32;1.33;;;7.80;99.90;;;;;;4969889;28;20039;-80
2023/04/13 03:49:45;;;;;;;6.07;1.40;;;7.80;99.90;;;;;;4966243;28;20038;-76
2023/04/13 03:52:13;;;;;;;6.03;1.58;;;7.80;99.90;;;;;;4967076;28;20054;-78
2023/04/13 03:57:16;;;;;;;3.65;1.10;;;7.80;99.90;;;;;;4445661;23;20045;-78
2023/04/13 03:59:42;;;;;;;9.15;1.20;;;7.80;99.90;;;;;;5026255;28;20042;-79
2023/04/13 04:02:09;;;;;;;4.93;1.08;;;7.80;99.90;;;;;;5028261;28;20046;-78
2023/04/13 04:04:38;;;;;;;4.05;1.50;;;7.80;99.90;;;;;;5022796;28;20081;-78
2023/04/13 04:07:10;;;;;;;5.85;1.35;;;7.80;99.90;;;;;;5017129;28;20386;-78
2023/04/13 04:09:37;;;;;;;10.05;1.33;;;7.70;99.90;;;;;;5015432;28;20054;-79
2023/04/13 04:12:04;;;;;;;6.22;1.10;;;7.80;99.90;;;;;;5027981;28;20132;-79
2023/04/13 04:14:31;;;;;;;4.85;1.40;;;7.70;99.90;;;;;;5015934;28;20456;-78
2023/04/13 04:16:58;;;;;;;4.18;1.20;;;7.80;99.90;;;;;;5019091;28;20073;-78
2023/04/13 04:19:24;;;;;;;7.57;1.42;;;7.70;99.90;;;;;;5025738;28;20053;-78
2023/04/13 04:21:51;;;;;;;8.35;1.40;;;7.80;99.90;;;;;;5014516;28;20107;-79
2023/04/13 04:24:22;;;;;;;12.07;1.58;;;7.70;99.90;;;;;;5022253;28;20057;-82
2023/04/13 04:26:49;;;;;;;4.15;0.95;;;7.70;99.90;;;;;;5027526;28;20092;-79
2023/04/13 04:29:20;;;;;;;11.43;2.60;;;7.70;99.90;;;;;;5018542;28;20076;-79
2023/04/13 04:31:52;;;;;;;3.65;1.15;;;7.70;99.90;;;;;;5021330;28;20045;-80
2023/04/13 04:34:19;;;;;;;6.90;1.35;;;7.70;99.90;;;;;;5022327;28;20045;-79
2023/04/13 04:36:50;;;;;;;4.63;1.17;;;7.70;99.90;;;;;;5018881;28;20541;-80
2023/04/13 04:39:21;;;;;;;7.45;1.35;;;7.70;99.90;;;;;;5019448;28;20418;-79
2023/04/13 04:41:52;;;;;;;6.43;1.38;;;7.70;99.90;;;;;;5028650;28;20419;-79
2023/04/13 04:44:29;;;;;;;4.38;1.52;;;7.60;99.90;;;;;;5019841;28;20046;-79
2023/04/13 04:46:58;;;;;;;7.10;2.15;;;7.70;99.90;;;;;;5019117;28;20440;-79
2023/04/13 04:49:27;;;;;;;6.20;1.38;;;7.70;99.90;;;;;;5027884;28;20049;-79
2023/04/13 04:51:54;;;;;;;7.07;1.70;;;7.80;99.90;;;;;;5018567;28;20046;-80
2023/04/13 04:54:22;;;;;;;8.85;1.60;;;7.80;99.90;;;;;;5023369;28;20445;-79
2023/04/13 04:56:50;;;;;;;8.00;1.30;;;7.80;99.90;;;;;;5024734;28;20093;-80
2023/04/13 04:59:18;;;;;;;5.63;1.58;;;7.80;99.90;;;;;;5022009;28;20429;-79
2023/04/13 05:01:45;;;;;;;10.27;1.70;;;7.80;99.90;;;;;;5020210;28;20056;-80
2023/04/13 05:04:12;;;;;;;7.43;1.38;;;7.90;99.90;;;;;;5025452;28;20416;-80
2023/04/13 05:06:40;;;;;;;8.43;1.40;;;7.80;99.90;;;;;;5023274;28;20054;-79
2023/04/13 05:09:07;;;;;;;6.00;1.70;;;7.80;99.90;;;;;;5019969;28;20497;-80
2023/04/13 05:11:35;;;;;;;6.22;1.30;;;7.80;99.90;;;;;;5027139;28;20077;-80
2023/04/13 05:14:02;;;;;;;5.07;1.35;;;7.80;99.90;;;;;;5021667;28;20549;-79
2023/04/13 05:16:29;;;;;;;3.17;1.30;;;7.80;99.90;;;;;;5021658;28;20084;-79
2023/04/13 05:18:56;;;;;;;5.50;1.63;;;7.80;99.90;;;;;;5024994;28;20061;-79
2023/04/13 05:21:23;;;;;;;6.55;2.17;;;7.80;99.90;;;;;;5021149;28;20076;-79
2023/04/13 05:23:50;;;;;;;5.82;2.17;;;7.80;99.90;;;;;;5021173;28;20049;-80
2023/04/13 05:26:19;;;;;;;11.32;2.47;;;7.80;99.90;;;;;;5022098;28;20100;-80
2023/04/13 05:28:45;;;;;;;5.63;1.40;;;7.80;99.90;;;;;;5027124;28;20037;-79
2023/04/13 05:31:14;;;;;;;7.25;0.98;;;7.90;99.90;;;;;;5016335;28;20041;-80
2023/04/13 05:33:41;;;;;;;3.65;1.38;;;7.90;99.90;;;;;;5021613;28;20057;-79
2023/04/13 05:36:08;;;;;;;12.70;1.80;;;8.00;99.90;;;;;;5023923;28;20133;-80
2023/04/13 05:38:35;;;;;;;9.20;1.65;;;8.00;99.90;;;;;;5016263;28;20057;-78
2023/04/13 05:41:02;;;;;;;12.82;1.52;;;8.00;99.90;;;;;;5023405;28;20581;-80
2023/04/13 05:43:29;;;;;;;8.20;1.58;;;8.10;99.90;;;;;;5026242;28;20473;-80
2023/04/13 05:45:56;;;;;;;3.78;1.30;;;8.10;99.90;;;;;;5016846;28;20128;-81
2023/04/13 05:48:24;;;;;;;11.68;1.60;;;8.10;99.90;;;;;;5022953;28;20053;-79
2023/04/13 05:50:59;;;;;;;10.38;1.52;;;8.10;99.90;;;;;;5028009;28;20103;-80
2023/04/13 05:53:26;;;;;;;7.82;1.10;;;8.10;99.90;;;;;;5015833;28;20079;-79
2023/04/13 05:55:53;;;;;;;8.48;0.95;;;8.20;99.90;;;;;;5024716;28;20045;-80
2023/04/13 05:58:20;;;;;;;7.85;1.42;;;8.20;99.90;;;;;;5025810;28;20135;-80
2023/04/13 06:00:47;;;;;;;8.48;1.30;;;8.20;99.90;;;;;;5018664;28;20543;-78
2023/04/13 06:03:15;;;;;;;9.45;1.20;;;8.20;99.90;;;;;;5024772;28;20164;-79
2023/04/13 06:05:42;;;;;;;8.05;1.70;;;8.10;99.90;;;;;;5020348;28;20042;-80
2023/04/13 06:08:10;;;;;;;9.55;2.10;;;8.00;99.90;;;;;;5019024;28;20132;-79
2023/04/13 06:10:37;;;;;;;7.28;1.52;;;8.00;99.90;;;;;;5021052;28;20049;-79
2023/04/13 06:13:04;;;;;;;7.32;1.80;;;8.00;99.90;;;;;;5026807;28;20053;-79
2023/04/13 06:15:31;;;;;;;6.22;1.25;;;8.00;99.90;;;;;;5017998;28;20045;-79
2023/04/13 06:17:58;;;;;;;7.20;1.63;;;8.00;99.90;;;;;;5021447;28;20053;-80
2023/04/13 06:20:25;;;;;;;11.02;1.52;;;8.00;99.90;;;;;;5025235;28;20053;-78
2023/04/13 06:22:51;;;;;;;8.55;1.30;;;8.00;99.90;;;;;;5025342;28;20054;-80
2023/04/13 06:25:18;;;;;;;7.10;1.20;;;8.00;99.90;;;;;;5024684;28;20132;-79
2023/04/13 06:27:46;;;;;;;6.38;1.25;;;8.00;99.90;;;;;;5024938;28;20053;-78
2023/04/13 06:30:13;;;;;;;9.85;1.98;;;8.00;99.90;;;;;;5020102;28;20116;-79
2023/04/13 06:32:40;;;;;;;13.77;2.55;;;8.10;99.90;;;;;;5008045;28;20516;-79
2023/04/13 06:35:08;;;;;;;8.85;3.08;;;8.10;99.90;;;;;;5019233;28;20548;-81
2023/04/13 06:37:35;;;;;;;8.02;2.10;;;8.10;99.90;;;;;;5016128;28;20174;-81
2023/04/13 06:40:11;;;;;;;5.72;1.52;;;8.10;99.90;;;;;;5015457;28;20468;-81
2023/04/13 06:42:39;;;;;;;9.82;1.60;;;8.10;99.90;;;;;;5020285;28;20074;-80
2023/04/13 06:45:07;;;;;;;7.25;1.80;;;8.10;99.90;;;;;;5018287;28;20105;-80
2023/04/13 06:47:36;;;;;;;9.48;2.67;;;8.10;99.90;;;;;;5016364;28;20042;-81
2023/04/13 06:50:07;;;;;;;7.32;1.60;;;8.10;99.90;;;;;;5013754;28;21023;-82
2023/04/13 06:52:35;;;;;;;7.55;1.77;;;8.10;99.90;;;;;;5011033;28;20112;-81
2023/04/13 06:55:02;;;;;;;10.73;1.65;;;8.10;99.90;;;;;;5015929;28;20051;-80
2023/04/13 06:57:29;;;;;;;6.40;1.80;;;8.10;99.90;;;;;;5018848;28;20076;-80
2023/04/13 06:59:57;;;;;;;9.13;1.50;;;8.10;99.90;;;;;;5019771;28;20152;-80
2023/04/13 07:02:25;;;;;;;8.05;1.80;;;8.10;99.90;;;;;;5016576;28;20136;-80
2023/04/13 07:04:52;;;;;;;7.07;1.45;;;8.10;99.90;;;;;;5022616;28;20046;-81
2023/04/13 07:07:19;;;;;;;14.38;1.73;;;8.20;99.90;;;;;;5021059;28;20045;-81
2023/04/13 07:09:46;;;;;;;7.68;1.58;;;8.20;99.90;;;;;;5021520;28;20417;-81
2023/04/13 07:12:13;;;;;;;9.95;1.75;;;8.30;99.90;;;;;;5023232;28;20056;-81
2023/04/13 07:14:42;;;;;;;10.93;1.90;;;8.40;99.90;;;;;;5027829;28;20064;-80
2023/04/13 07:17:09;;;;;;;15.93;1.98;;;8.40;99.90;;;;;;5017133;28;20061;-81
2023/04/13 07:19:46;;;;;;;7.47;1.63;;;8.40;99.90;;;;;;5019877;28;20525;-79
2023/04/13 07:22:13;;;;;;;10.07;1.75;;;8.40;99.90;;;;;;5016850;28;20081;-80
2023/04/13 07:24:40;;;;;;;7.70;2.08;;;8.50;99.90;;;;;;5014582;28;20121;-80
2023/04/13 07:27:07;;;;;;;9.27;1.88;;;8.50;99.90;;;;;;5020788;28;20146;-80
2023/04/13 07:29:34;;;;;;;10.13;1.42;;;8.50;99.90;;;;;;5025239;28;20113;-80
2023/04/13 07:32:02;;;;;;;9.52;3.00;;;8.60;99.90;;;;;;5013343;28;20050;-80
2023/04/13 07:34:29;;;;;;;11.88;2.72;;;8.70;99.90;;;;;;5019109;28;20069;-79
2023/04/13 07:36:56;;;;;;;8.57;1.80;;;8.90;99.90;;;;;;5027292;28;20052;-80
2023/04/13 07:39:23;;;;;;;9.85;2.47;;;9.10;99.90;;;;;;5018232;28;20050;-80
2023/04/13 07:41:49;;;;;;;7.57;1.42;;;9.30;99.90;;;;;;5015716;28;20076;-80
2023/04/13 07:44:16;;;;;;;6.82;2.03;;;9.50;99.90;;;;;;5025004;28;20513;-80
2023/04/13 07:46:43;;;;;;;16.40;4.13;;;9.60;99.90;;;;;;5011755;28;20045;-80
2023/04/13 07:49:10;;;;;;;11.50;2.30;;;9.70;99.90;;;;;;5012956;28;20045;-80
2023/04/13 07:51:36;;;;;;;12.02;2.63;;;9.80;99.90;;;;;;5026255;28;20133;-80
2023/04/13 07:54:03;;;;;;;13.10;2.00;;;9.90;99.90;;;;;;5019462;28;20077;-80
2023/04/13 07:56:30;;;;;;;12.30;2.28;;;9.90;99.90;;;;;;5021884;28;20055;-79
2023/04/13 07:58:57;;;;;;;11.43;2.25;;;9.90;99.90;;;;;;5029636;28;20060;-80
2023/04/13 08:01:24;;;;;;;13.63;2.90;;;9.90;99.90;;;;;;5022004;28;20544;-79
2023/04/13 08:03:51;;;;;;;13.68;2.47;;;9.90;99.90;;;;;;5023508;28;20466;-79
2023/04/13 08:06:22;;;;;;;16.38;2.20;;;9.90;99.90;;;;;;5025655;28;20563;-77
2023/04/13 08:08:49;;;;;;;12.18;2.40;;;10.00;99.90;;;;;;5016609;28;20054;-79
2023/04/13 08:11:18;;;;;;;12.60;2.10;;;10.00;99.90;;;;;;5021191;28;20121;-80
2023/04/13 08:13:45;;;;;;;17.13;2.53;;;10.00;99.90;;;;;;5020584;28;20067;-79
2023/04/13 08:16:14;;;;;;;15.70;3.00;;;10.00;99.90;;;;;;5015229;28;20505;-79
2023/04/13 08:18:42;;;;;;;10.00;2.97;;;9.90;99.90;;;;;;5018247;28;20046;-79
2023/04/13 08:21:14;;;;;;;11.18;2.08;;;9.90;99.90;;;;;;5021084;28;20050;-79
2023/04/13 08:31:46;;;;;;;29.13;6.78;;;10.10;99.90;;;;;;4194712;23;20049;-80
2023/04/13 08:34:13;;;;;;;37.20;6.22;;;10.20;99.90;;;;;;5032541;28;20053;-79
2023/04/13 08:36:42;;;;;;;54.38;13.10;;;10.30;99.90;;;;;;5026290;28;20045;-80
2023/04/13 08:39:09;;;;;;;27.02;6.20;;;10.40;99.90;;;;;;5020844;28;20109;-80
2023/04/13 08:41:37;;;;;;;54.85;12.82;;;10.40;99.90;;;;;;5023407;28;20084;-81
2023/04/13 08:44:07;;;;;;;56.47;12.80;;;10.40;99.90;;;;;;5024069;28;20138;-80
2023/04/13 08:46:34;;;;;;;52.55;10.57;;;10.50;99.90;;;;;;5019988;28;20045;-80
2023/04/13 08:49:02;;;;;;;12.65;2.60;;;10.60;99.90;;;;;;5026095;28;20488;-80
2023/04/13 08:51:30;;;;;;;13.77;2.42;;;10.50;99.90;;;;;;5022804;28;20080;-81
2023/04/13 09:07:33;;;;;;;9.88;2.03;;;10.80;99.90;;;;;;5043393;23;20053;-79
2023/04/13 09:10:00;;;;;;;11.27;2.45;;;10.70;99.90;;;;;;5023075;28;20125;-79
2023/04/13 09:12:28;;;;;;;12.70;2.28;;;10.80;99.90;;;;;;5028028;28;20101;-80
2023/04/13 09:17:31;;;;;;;10.23;2.55;;;10.90;99.90;;;;;;5178085;23;20060;-82
2023/04/13 09:20:21;;;;;;;11.10;1.85;;;10.80;99.90;;;;;;5029623;28;20068;-81
2023/04/13 09:22:49;;;;;;;8.57;1.98;;;10.70;99.90;;;;;;5032752;28;20123;-80
2023/04/13 09:25:27;;;;;;;9.68;1.88;;;10.80;99.90;;;;;;5028246;28;20107;-80
2023/04/13 09:27:55;;;;;;;9.63;1.83;;;10.80;99.90;;;;;;5026457;28;20046;-81
2023/04/13 09:30:24;;;;;;;9.73;2.38;;;10.70;99.90;;;;;;5025381;28;20054;-81
2023/04/13 09:33:07;;;;;;;8.00;1.90;;;10.60;99.90;;;;;;5024178;28;20087;-81
2023/04/13 09:35:35;;;;;;;8.07;2.08;;;10.60;99.90;;;;;;5027481;28;20416;-81
2023/04/13 09:38:03;;;;;;;10.75;1.73;;;10.70;99.90;;;;;;5019919;28;20085;-81
2023/04/13 09:40:31;;;;;;;7.75;1.90;;;10.70;99.90;;;;;;5025119;28;20045;-81
2023/04/13 09:43:03;;;;;;;12.77;2.65;;;10.70;99.90;;;;;;5027135;28;20077;-81
2023/04/13 09:45:34;;;;;;;12.35;2.50;;;10.70;99.90;;;;;;5025485;28;20058;-81
2023/04/13 09:48:02;;;;;;;13.63;2.35;;;10.80;99.90;;;;;;5025591;28;20084;-80
2023/04/13 09:50:35;;;;;;;10.15;1.50;;;10.80;99.90;;;;;;5028917;28;20053;-80
2023/04/13 09:53:03;;;;;;;4.47;1.80;;;10.90;99.90;;;;;;5029625;28;20080;-79
2023/04/13 09:55:32;;;;;;;9.45;1.33;;;10.80;99.90;;;;;;5024309;28;20046;-81
2023/04/13 09:58:09;;;;;;;5.00;1.50;;;10.60;99.90;;;;;;5027744;28;20132;-81
2023/04/13 10:00:37;;;;;;;5.95;1.48;;;10.50;99.90;;;;;;5021222;28;20061;-80
2023/04/13 10:03:09;;;;;;;6.70;1.65;;;10.30;99.90;;;;;;5023680;28;20493;-80
2023/04/13 10:05:37;;;;;;;4.88;1.70;;;10.30;99.90;;;;;;5025858;28;20509;-78
2023/04/13 10:08:24;;;;;;;3.33;1.33;;;10.40;99.90;;;;;;5031054;28;20091;-81
2023/04/13 10:11:05;;;;;;;;;;;10.40;99.90;;;;;;5022195;28;20124;-80
2023/04/13 10:13:41;;;;;;;7.30;1.23;;;10.40;99.90;;;;;;5024316;28;19922;-79
2023/04/13 10:16:27;;;;;;;6.35;1.50;;;10.40;99.90;;;;;;5028310;28;20054;-80
2023/04/13 10:19:11;;;;;;;6.47;1.63;;;10.40;99.90;;;;;;5020094;28;20119;-81
2023/04/13 10:21:41;;;;;;;6.82;1.48;;;10.30;99.90;;;;;;5024551;28;20127;-80
2023/04/13 10:24:12;;;;;;;7.32;1.70;;;10.30;99.90;;;;;;5020754;28;20050;-78
2023/04/13 10:26:41;;;;;;;9.73;2.00;;;10.40;99.90;;;;;;5028619;28;20080;-80
2023/04/13 10:29:10;;;;;;;8.43;2.08;;;10.40;99.90;;;;;;5024784;28;20042;-80
2023/04/13 10:31:38;;;;;;;7.53;1.85;;;10.40;99.90;;;;;;5020645;28;20489;-81
2023/04/13 10:34:06;;;;;;;7.47;1.50;;;10.50;99.90;;;;;;5034552;28;20085;-80
2023/04/13 10:36:38;;;;;;;8.50;2.20;;;10.60;99.90;;;;;;5030292;28;20072;-80
2023/04/13 10:39:05;;;;;;;7.55;1.85;;;10.50;99.90;;;;;;5031731;28;20513;-80
2023/04/13 10:41:31;;;;;;;7.97;1.65;;;10.60;99.90;;;;;;5025134;28;20045;-80
2023/04/13 10:44:04;;;;;;;9.90;2.22;;;10.70;99.90;;;;;;5028244;28;20088;-79
2023/04/13 10:46:34;;;;;;;7.15;1.70;;;10.80;99.90;;;;;;5024120;28;20057;-80
2023/04/13 10:49:03;;;;;;;9.30;2.25;;;10.90;99.90;;;;;;5029027;28;20528;-80
2023/04/13 10:51:43;;;;;;;10.20;1.90;;;11.00;99.90;;;;;;5025933;28;20045;-81
2023/04/13 10:54:12;;;;;;;12.10;2.13;;;11.10;99.90;;;;;;5018886;28;20046;-80
2023/04/13 10:56:39;;;;;;;11.07;1.90;;;11.30;99.90;;;;;;5029643;28;20073;-81
2023/04/13 10:59:06;;;;;;;9.80;1.83;;;11.40;99.90;;;;;;5030508;28;20049;-80
2023/04/13 11:01:34;;;;;;;6.78;2.00;;;11.60;99.90;;;;;;5029123;28;20061;-81
2023/04/13 11:04:03;;;;;;;7.15;1.90;;;11.60;99.90;;;;;;5031316;28;20050;-81
2023/04/13 11:06:36;;;;;;;5.05;1.30;;;11.50;99.90;;;;;;5025672;28;20050;-81
2023/04/13 11:09:05;;;;;;;5.43;1.42;;;11.60;99.90;;;;;;5023424;28;20085;-80
2023/04/13 11:11:34;;;;;;;3.80;1.23;;;11.60;99.90;;;;;;5021829;28;20054;-80
2023/04/13 11:14:02;;;;;;;4.20;1.13;;;11.60;99.90;;;;;;5024849;28;20053;-80
2023/04/13 11:16:29;;;;;;;7.97;1.10;;;11.70;99.90;;;;;;5020487;28;20060;-80
2023/04/13 11:19:01;;;;;;;7.55;1.95;;;11.80;99.90;;;;;;5019701;28;20145;-78
2023/04/13 11:21:28;;;;;;;5.85;1.50;;;11.80;99.90;;;;;;5022281;28;20468;-79
2023/04/13 11:23:55;;;;;;;11.25;1.80;;;11.90;99.90;;;;;;5033302;28;20144;-79
2023/04/13 11:26:36;;;;;;;7.70;1.42;;;12.10;99.90;;;;;;5024490;28;20088;-80
2023/04/13 11:29:04;;;;;;;5.18;1.48;;;12.30;99.90;;;;;;5026961;28;20497;-81
2023/04/13 11:31:36;;;;;;;8.77;1.77;;;12.40;99.90;;;;;;5024026;28;20289;-80
2023/04/13 11:34:08;;;;;;;7.35;1.58;;;12.50;99.90;;;;;;5018887;28;20073;-80
2023/04/13 11:36:37;;;;;;;6.53;1.30;;;12.60;99.90;;;;;;5028588;28;20054;-80
2023/04/13 11:39:08;;;;;;;4.50;1.85;;;12.70;99.90;;;;;;5025586;28;20080;-78
2023/04/13 11:41:40;;;;;;;7.60;1.50;;;12.60;99.90;;;;;;5035968;28;20053;-80
2023/04/13 11:44:10;;;;;;;8.18;2.40;;;12.50;99.90;;;;;;5028136;28;20473;-80
2023/04/13 11:46:36;;;;;;;7.30;1.42;;;12.50;99.90;;;;;;5028377;28;20136;-81
2023/04/13 11:49:03;;;;;;;7.20;1.67;;;12.60;99.90;;;;;;5027062;28;20056;-80
2023/04/13 11:51:31;;;;;;;5.50;2.10;;;12.70;99.90;;;;;;5029134;28;20509;-80
2023/04/13 11:53:58;;;;;;;8.77;1.90;;;12.80;99.90;;;;;;5027936;28;20141;-81
2023/04/13 11:56:25;;;;;;;6.57;1.77;;;13.00;99.90;;;;;;5027824;28;20078;-80
2023/04/13 11:58:52;;;;;;;10.73;2.28;;;13.10;99.90;;;;;;5027884;28;20068;-81
2023/04/13 12:01:22;;;;;;;8.73;2.30;;;13.30;99.90;;;;;;5023689;28;20142;-80
2023/04/13 12:04:02;;;;;;;8.52;1.95;;;13.40;99.90;;;;;;5025875;28;20464;-80
2023/04/13 12:06:42;;;;;;;4.68;1.40;;;13.50;99.90;;;;;;5028533;28;20461;-80
2023/04/13 12:09:11;;;;;;;4.82;1.60;;;13.40;99.90;;;;;;5021471;28;20045;-78
2023/04/13 12:11:43;;;;;;;11.15;1.85;;;13.40;99.90;;;;;;5021849;28;20525;-78
2023/04/13 12:14:21;;;;;;;6.78;1.80;;;13.20;99.90;;;;;;5027943;28;20129;-79
2023/04/13 12:16:51;;;;;;;6.03;1.35;;;13.20;99.90;;;;;;5026306;28;20052;-78
2023/04/13 12:19:22;;;;;;;9.93;1.90;;;13.10;99.90;;;;;;5036148;28;20046;-77
2023/04/13 12:21:54;;;;;;;8.20;2.42;;;13.10;99.90;;;;;;5024697;28;20408;-80
2023/04/13 12:24:36;;;;;;;3.00;1.38;;;13.00;99.90;;;;;;5023407;28;20046;-80
2023/04/13 12:27:04;;;;;;;6.07;1.45;;;13.00;99.90;;;;;;5022227;28;20046;-80
2023/04/13 12:29:43;;;;;;;7.40;1.80;;;12.90;99.90;;;;;;5024970;28;20071;-78
2023/04/13 12:32:12;;;;;;;7.13;1.83;;;12.80;99.90;;;;;;5027863;28;20412;-80
2023/04/13 12:34:41;;;;;;;9.82;1.95;;;12.70;99.90;;;;;;5025080;28;20041;-79
2023/04/13 12:37:10;;;;;;;7.57;1.70;;;12.60;99.90;;;;;;5028821;28;20049;-80
2023/04/13 12:39:37;;;;;;;9.15;1.98;;;12.60;99.90;;;;;;5035013;28;20050;-80
2023/04/13 12:42:03;;;;;;;7.18;1.92;;;12.60;99.90;;;;;;5033096;28;20088;-80
2023/04/13 12:44:30;;;;;;;10.50;2.25;;;12.60;99.90;;;;;;5027297;28;20079;-78
2023/04/13 12:47:00;;;;;;;7.57;1.90;;;12.50;99.90;;;;;;5026835;28;20515;-80
2023/04/13 12:49:27;;;;;;;9.60;2.72;;;12.60;99.90;;;;;;5020700;28;20432;-80
2023/04/13 12:51:53;;;;;;;4.90;1.65;;;12.70;99.90;;;;;;5026645;28;20493;-80
2023/04/13 12:54:20;;;;;;;6.13;1.45;;;12.80;99.90;;;;;;5024117;28;20042;-79
2023/04/13 12:56:47;;;;;;;9.93;1.80;;;12.80;99.90;;;;;;5022110;28;20056;-78
2023/04/13 12:59:15;;;;;;;4.25;1.13;;;12.90;99.90;;;;;;5032621;28;20041;-81
2023/04/13 13:01:42;;;;;;;7.95;2.17;;;12.90;99.90;;;;;;5032394;28;20041;-81
2023/04/13 13:04:09;;;;;;;9.25;1.90;;;13.00;99.90;;;;;;5030186;28;20132;-79
2023/04/13 13:06:36;;;;;;;4.90;1.58;;;13.10;99.90;;;;;;5027953;28;20410;-80
2023/04/13 13:09:02;;;;;;;5.93;1.60;;;13.10;99.90;;;;;;5030523;28;20041;-80
2023/04/13 13:11:30;;;;;;;9.85;2.00;;;13.20;99.90;;;;;;5033476;28;20038;-80
2023/04/13 13:13:56;;;;;;;4.97;1.55;;;13.30;99.90;;;;;;5026759;28;20049;-80
2023/04/13 13:16:23;;;;;;;4.47;1.50;;;13.30;99.90;;;;;;5023653;28;20061;-79
2023/04/13 13:18:51;;;;;;;5.93;1.30;;;13.40;99.90;;;;;;5017868;28;20141;-80
2023/04/13 13:21:18;;;;;;;2.50;1.20;;;13.50;99.90;;;;;;5029014;28;20081;-80
2023/04/13 13:23:45;;;;;;;5.78;1.30;;;13.50;99.90;;;;;;5025035;28;20053;-80
2023/04/13 13:26:12;;;;;;;3.35;1.00;;;13.60;99.90;;;;;;5023564;28;20091;-80
2023/04/13 13:28:50;;;;;;;2.83;1.35;;;13.60;99.90;;;;;;5029228;28;20046;-80